sensor_id;sensor_type;location;lat;lon;timestamp;P1;durP1;ratioP1;P2;durP2;ratioP2
72611;SDS011;60655;52.182;4.474;2023-03-30T00:00:37;9.13;;;2.20;;
72611;SDS011;60655;52.182;4.474;2023-03-30T00:02:38;10.05;;;2.35;;
72611;SDS011;60655;52.182;4.474;2023-03-30T00:04:43;9.20;;;2.88;;
72611;SDS011;60655;52.182;4.474;2023-03-30T00:06:44;9.85;;;2.75;;
72611;SDS011;60655;52.182;4.474;2023-03-30T00:08:45;8.77;;;2.55;;
72611;SDS011;60655;52.182;4.474;2023-03-30T00:10:47;9.50;;;2.50;;
72611;SDS011;60655;52.182;4.474;2023-03-30T00:12:48;10.02;;;2.58;;
72611;SDS011;60655;52.182;4.474;2023-03-30T00:14:50;11.75;;;2.40;;
72611;SDS011;60655;52.182;4.474;2023-03-30T00:16:51;9.35;;;2.25;;
72611;SDS011;60655;52.182;4.474;2023-03-30T00:18:52;11.13;;;2.85;;
72611;SDS011;60655;52.182;4.474;2023-03-30T00:20:53;5.72;;;2.22;;
72611;SDS011;60655;52.182;4.474;2023-03-30T00:22:55;8.15;;;2.40;;
72611;SDS011;60655;52.182;4.474;2023-03-30T00:24:56;5.60;;;1.85;;
72611;SDS011;60655;52.182;4.474;2023-03-30T00:26:57;10.30;;;2.45;;
72611;SDS011;60655;52.182;4.474;2023-03-30T00:28:58;7.78;;;2.55;;
72611;SDS011;60655;52.182;4.474;2023-03-30T00:30:59;11.35;;;2.60;;
72611;SDS011;60655;52.182;4.474;2023-03-30T00:33:00;6.50;;;1.90;;
72611;SDS011;60655;52.182;4.474;2023-03-30T00:35:01;9.95;;;2.13;;
72611;SDS011;60655;52.182;4.474;2023-03-30T00:37:02;8.50;;;1.98;;
72611;SDS011;60655;52.182;4.474;2023-03-30T00:39:03;7.43;;;2.15;;
72611;SDS011;60655;52.182;4.474;2023-03-30T00:41:08;7.32;;;2.17;;
72611;SDS011;60655;52.182;4.474;2023-03-30T00:43:10;5.70;;;1.80;;
72611;SDS011;60655;52.182;4.474;2023-03-30T00:45:16;9.20;;;1.95;;
72611;SDS011;60655;52.182;4.474;2023-03-30T00:47:31;11.15;;;1.90;;
72611;SDS011;60655;52.182;4.474;2023-03-30T00:49:32;9.07;;;1.90;;
72611;SDS011;60655;52.182;4.474;2023-03-30T00:51:35;6.47;;;1.48;;
72611;SDS011;60655;52.182;4.474;2023-03-30T00:53:40;7.47;;;1.70;;
72611;SDS011;60655;52.182;4.474;2023-03-30T00:55:48;8.13;;;1.70;;
72611;SDS011;60655;52.182;4.474;2023-03-30T00:57:51;6.20;;;1.63;;
72611;SDS011;60655;52.182;4.474;2023-03-30T00:59:53;8.93;;;1.70;;
72611;SDS011;60655;52.182;4.474;2023-03-30T01:01:55;6.53;;;1.90;;
72611;SDS011;60655;52.182;4.474;2023-03-30T01:03:56;7.88;;;1.65;;
72611;SDS011;60655;52.182;4.474;2023-03-30T01:06:03;7.35;;;1.80;;
72611;SDS011;60655;52.182;4.474;2023-03-30T01:08:07;4.45;;;1.50;;
72611;SDS011;60655;52.182;4.474;2023-03-30T01:10:09;9.05;;;1.90;;
72611;SDS011;60655;52.182;4.474;2023-03-30T01:12:10;8.27;;;1.75;;
72611;SDS011;60655;52.182;4.474;2023-03-30T01:14:11;8.85;;;2.22;;
72611;SDS011;60655;52.182;4.474;2023-03-30T01:19:00;7.65;;;1.70;;
72611;SDS011;60655;52.182;4.474;2023-03-30T01:21:27;6.53;;;1.88;;
72611;SDS011;60655;52.182;4.474;2023-03-30T01:23:50;7.70;;;1.73;;
72611;SDS011;60655;52.182;4.474;2023-03-30T01:26:06;8.70;;;1.55;;
72611;SDS011;60655;52.182;4.474;2023-03-30T01:32:48;10.13;;;1.83;;
72611;SDS011;60655;52.182;4.474;2023-03-30T01:39:55;10.13;;;1.70;;
72611;SDS011;60655;52.182;4.474;2023-03-30T01:42:16;12.80;;;1.98;;
72611;SDS011;60655;52.182;4.474;2023-03-30T01:46:36;11.82;;;1.73;;
72611;SDS011;60655;52.182;4.474;2023-03-30T01:48:41;4.75;;;1.33;;
72611;SDS011;60655;52.182;4.474;2023-03-30T01:50:50;8.52;;;1.70;;
72611;SDS011;60655;52.182;4.474;2023-03-30T01:55:05;10.10;;;1.75;;
72611;SDS011;60655;52.182;4.474;2023-03-30T01:57:13;7.97;;;1.80;;
72611;SDS011;60655;52.182;4.474;2023-03-30T01:59:19;8.20;;;1.95;;
72611;SDS011;60655;52.182;4.474;2023-03-30T02:01:27;7.38;;;1.60;;
72611;SDS011;60655;52.182;4.474;2023-03-30T02:03:33;9.55;;;1.42;;
72611;SDS011;60655;52.182;4.474;2023-03-30T02:05:38;9.50;;;1.90;;
72611;SDS011;60655;52.182;4.474;2023-03-30T02:07:42;10.65;;;1.80;;
72611;SDS011;60655;52.182;4.474;2023-03-30T02:11:52;12.15;;;1.90;;
72611;SDS011;60655;52.182;4.474;2023-03-30T02:13:53;12.80;;;2.08;;
72611;SDS011;60655;52.182;4.474;2023-03-30T02:15:58;14.25;;;1.70;;
72611;SDS011;60655;52.182;4.474;2023-03-30T02:18:06;13.63;;;1.90;;
72611;SDS011;60655;52.182;4.474;2023-03-30T02:20:08;11.90;;;1.70;;
72611;SDS011;60655;52.182;4.474;2023-03-30T02:22:11;8.98;;;1.73;;
72611;SDS011;60655;52.182;4.474;2023-03-30T02:24:17;8.48;;;2.00;;
72611;SDS011;60655;52.182;4.474;2023-03-30T02:26:22;9.40;;;1.70;;
72611;SDS011;60655;52.182;4.474;2023-03-30T02:28:23;8.15;;;1.80;;
72611;SDS011;60655;52.182;4.474;2023-03-30T02:30:28;11.63;;;2.10;;
72611;SDS011;60655;52.182;4.474;2023-03-30T02:32:35;7.72;;;1.98;;
72611;SDS011;60655;52.182;4.474;2023-03-30T02:44:04;7.03;;;1.58;;
72611;SDS011;60655;52.182;4.474;2023-03-30T02:46:10;7.63;;;1.40;;
72611;SDS011;60655;52.182;4.474;2023-03-30T02:48:17;5.88;;;1.70;;
72611;SDS011;60655;52.182;4.474;2023-03-30T02:50:27;10.60;;;1.40;;
72611;SDS011;60655;52.182;4.474;2023-03-30T02:55:05;8.63;;;1.58;;
72611;SDS011;60655;52.182;4.474;2023-03-30T02:57:17;6.85;;;1.30;;
72611;SDS011;60655;52.182;4.474;2023-03-30T02:59:29;7.22;;;1.50;;
72611;SDS011;60655;52.182;4.474;2023-03-30T03:03:57;7.03;;;1.20;;
72611;SDS011;60655;52.182;4.474;2023-03-30T03:06:02;7.82;;;1.20;;
72611;SDS011;60655;52.182;4.474;2023-03-30T03:08:04;11.63;;;1.75;;
72611;SDS011;60655;52.182;4.474;2023-03-30T03:10:05;10.25;;;1.52;;
72611;SDS011;60655;52.182;4.474;2023-03-30T03:12:07;8.23;;;1.30;;
72611;SDS011;60655;52.182;4.474;2023-03-30T03:14:08;9.50;;;1.40;;
72611;SDS011;60655;52.182;4.474;2023-03-30T03:16:11;8.82;;;1.45;;
72611;SDS011;60655;52.182;4.474;2023-03-30T03:18:12;7.32;;;1.67;;
72611;SDS011;60655;52.182;4.474;2023-03-30T03:20:13;6.22;;;1.73;;
72611;SDS011;60655;52.182;4.474;2023-03-30T03:22:14;9.93;;;1.50;;
72611;SDS011;60655;52.182;4.474;2023-03-30T03:24:15;8.45;;;1.50;;
72611;SDS011;60655;52.182;4.474;2023-03-30T03:26:18;7.18;;;1.48;;
72611;SDS011;60655;52.182;4.474;2023-03-30T03:28:19;7.65;;;1.65;;
72611;SDS011;60655;52.182;4.474;2023-03-30T03:30:20;8.50;;;1.60;;
72611;SDS011;60655;52.182;4.474;2023-03-30T03:32:21;7.00;;;1.60;;
72611;SDS011;60655;52.182;4.474;2023-03-30T03:34:22;6.18;;;1.48;;
72611;SDS011;60655;52.182;4.474;2023-03-30T03:36:25;9.65;;;1.67;;
72611;SDS011;60655;52.182;4.474;2023-03-30T03:38:26;10.15;;;1.75;;
72611;SDS011;60655;52.182;4.474;2023-03-30T03:40:28;11.25;;;2.03;;
72611;SDS011;60655;52.182;4.474;2023-03-30T03:42:29;10.70;;;1.83;;
72611;SDS011;60655;52.182;4.474;2023-03-30T03:44:30;9.95;;;1.38;;
72611;SDS011;60655;52.182;4.474;2023-03-30T03:46:31;8.52;;;1.52;;
72611;SDS011;60655;52.182;4.474;2023-03-30T03:48:32;11.05;;;1.48;;
72611;SDS011;60655;52.182;4.474;2023-03-30T03:50:33;12.25;;;1.50;;
72611;SDS011;60655;52.182;4.474;2023-03-30T03:52:36;10.75;;;1.90;;
72611;SDS011;60655;52.182;4.474;2023-03-30T03:54:37;20.85;;;2.08;;
72611;SDS011;60655;52.182;4.474;2023-03-30T03:56:38;16.98;;;2.00;;
72611;SDS011;60655;52.182;4.474;2023-03-30T03:58:39;14.75;;;1.80;;
72611;SDS011;60655;52.182;4.474;2023-03-30T04:00:41;11.30;;;1.83;;
72611;SDS011;60655;52.182;4.474;2023-03-30T04:02:42;13.10;;;1.85;;
72611;SDS011;60655;52.182;4.474;2023-03-30T04:04:44;15.60;;;1.60;;
72611;SDS011;60655;52.182;4.474;2023-03-30T04:06:45;13.68;;;2.10;;
72611;SDS011;60655;52.182;4.474;2023-03-30T04:08:46;18.23;;;1.88;;
72611;SDS011;60655;52.182;4.474;2023-03-30T04:10:47;14.95;;;2.05;;
72611;SDS011;60655;52.182;4.474;2023-03-30T04:12:48;9.93;;;1.60;;
72611;SDS011;60655;52.182;4.474;2023-03-30T04:14:49;14.02;;;1.77;;
72611;SDS011;60655;52.182;4.474;2023-03-30T04:16:50;10.25;;;1.90;;
72611;SDS011;60655;52.182;4.474;2023-03-30T04:18:51;11.65;;;2.28;;
72611;SDS011;60655;52.182;4.474;2023-03-30T04:20:52;14.35;;;1.85;;
72611;SDS011;60655;52.182;4.474;2023-03-30T04:22:53;11.18;;;1.83;;
72611;SDS011;60655;52.182;4.474;2023-03-30T04:24:55;13.07;;;1.98;;
72611;SDS011;60655;52.182;4.474;2023-03-30T04:26:56;14.23;;;2.40;;
72611;SDS011;60655;52.182;4.474;2023-03-30T04:28:58;11.48;;;1.70;;
72611;SDS011;60655;52.182;4.474;2023-03-30T04:31:03;22.67;;;2.70;;
72611;SDS011;60655;52.182;4.474;2023-03-30T04:33:09;11.88;;;1.98;;
72611;SDS011;60655;52.182;4.474;2023-03-30T04:35:11;18.92;;;2.22;;
72611;SDS011;60655;52.182;4.474;2023-03-30T04:37:13;14.20;;;1.85;;
72611;SDS011;60655;52.182;4.474;2023-03-30T04:39:17;13.82;;;2.00;;
72611;SDS011;60655;52.182;4.474;2023-03-30T04:41:20;15.00;;;2.55;;
72611;SDS011;60655;52.182;4.474;2023-03-30T04:43:25;14.25;;;2.42;;
72611;SDS011;60655;52.182;4.474;2023-03-30T04:45:27;24.05;;;2.40;;
72611;SDS011;60655;52.182;4.474;2023-03-30T04:47:29;15.15;;;2.22;;
72611;SDS011;60655;52.182;4.474;2023-03-30T04:49:30;13.52;;;1.92;;
72611;SDS011;60655;52.182;4.474;2023-03-30T04:51:31;15.27;;;2.53;;
72611;SDS011;60655;52.182;4.474;2023-03-30T04:53:32;15.63;;;2.72;;
72611;SDS011;60655;52.182;4.474;2023-03-30T04:55:33;18.50;;;2.58;;
72611;SDS011;60655;52.182;4.474;2023-03-30T04:57:34;16.88;;;2.50;;
72611;SDS011;60655;52.182;4.474;2023-03-30T04:59:35;18.60;;;2.15;;
72611;SDS011;60655;52.182;4.474;2023-03-30T05:01:37;13.93;;;2.70;;
72611;SDS011;60655;52.182;4.474;2023-03-30T05:03:38;18.08;;;2.15;;
72611;SDS011;60655;52.182;4.474;2023-03-30T05:05:39;22.80;;;2.40;;
72611;SDS011;60655;52.182;4.474;2023-03-30T05:07:40;15.38;;;2.03;;
72611;SDS011;60655;52.182;4.474;2023-03-30T05:09:40;12.75;;;2.30;;
72611;SDS011;60655;52.182;4.474;2023-03-30T05:11:41;17.02;;;2.40;;
72611;SDS011;60655;52.182;4.474;2023-03-30T05:13:42;16.83;;;2.28;;
72611;SDS011;60655;52.182;4.474;2023-03-30T05:15:43;14.82;;;2.65;;
72611;SDS011;60655;52.182;4.474;2023-03-30T05:17:44;14.60;;;2.78;;
72611;SDS011;60655;52.182;4.474;2023-03-30T05:19:45;21.23;;;2.90;;
72611;SDS011;60655;52.182;4.474;2023-03-30T05:21:46;18.20;;;2.50;;
72611;SDS011;60655;52.182;4.474;2023-03-30T05:23:47;17.08;;;2.42;;
72611;SDS011;60655;52.182;4.474;2023-03-30T05:25:48;19.90;;;2.78;;
72611;SDS011;60655;52.182;4.474;2023-03-30T05:27:49;19.25;;;3.30;;
72611;SDS011;60655;52.182;4.474;2023-03-30T05:29:50;16.60;;;2.03;;
72611;SDS011;60655;52.182;4.474;2023-03-30T05:31:52;17.80;;;3.00;;
72611;SDS011;60655;52.182;4.474;2023-03-30T05:33:53;19.90;;;2.88;;
72611;SDS011;60655;52.182;4.474;2023-03-30T05:35:54;17.10;;;2.22;;
72611;SDS011;60655;52.182;4.474;2023-03-30T05:37:55;16.30;;;2.90;;
72611;SDS011;60655;52.182;4.474;2023-03-30T05:39:56;23.35;;;3.03;;
72611;SDS011;60655;52.182;4.474;2023-03-30T05:41:57;23.00;;;3.13;;
72611;SDS011;60655;52.182;4.474;2023-03-30T05:43:58;16.02;;;2.58;;
72611;SDS011;60655;52.182;4.474;2023-03-30T05:45:59;17.70;;;2.05;;
72611;SDS011;60655;52.182;4.474;2023-03-30T05:48:01;21.35;;;2.90;;
72611;SDS011;60655;52.182;4.474;2023-03-30T05:50:03;17.83;;;2.85;;
72611;SDS011;60655;52.182;4.474;2023-03-30T05:52:04;14.88;;;2.33;;
72611;SDS011;60655;52.182;4.474;2023-03-30T05:54:05;20.98;;;3.13;;
72611;SDS011;60655;52.182;4.474;2023-03-30T05:56:06;19.35;;;2.58;;
72611;SDS011;60655;52.182;4.474;2023-03-30T05:58:07;21.15;;;3.20;;
72611;SDS011;60655;52.182;4.474;2023-03-30T06:00:08;23.95;;;3.05;;
72611;SDS011;60655;52.182;4.474;2023-03-30T06:02:11;20.23;;;3.30;;
72611;SDS011;60655;52.182;4.474;2023-03-30T06:04:13;19.52;;;2.65;;
72611;SDS011;60655;52.182;4.474;2023-03-30T06:06:15;17.45;;;2.53;;
72611;SDS011;60655;52.182;4.474;2023-03-30T06:08:16;18.15;;;2.88;;
72611;SDS011;60655;52.182;4.474;2023-03-30T06:10:18;19.52;;;2.67;;
72611;SDS011;60655;52.182;4.474;2023-03-30T06:12:19;23.88;;;2.80;;
72611;SDS011;60655;52.182;4.474;2023-03-30T06:14:20;27.70;;;3.78;;
72611;SDS011;60655;52.182;4.474;2023-03-30T06:16:21;24.50;;;3.25;;
72611;SDS011;60655;52.182;4.474;2023-03-30T06:18:22;27.10;;;3.42;;
72611;SDS011;60655;52.182;4.474;2023-03-30T06:20:23;21.75;;;3.08;;
72611;SDS011;60655;52.182;4.474;2023-03-30T06:22:25;24.10;;;3.08;;
72611;SDS011;60655;52.182;4.474;2023-03-30T06:24:26;22.75;;;3.10;;
72611;SDS011;60655;52.182;4.474;2023-03-30T06:26:27;23.15;;;3.15;;
72611;SDS011;60655;52.182;4.474;2023-03-30T06:28:29;19.60;;;2.50;;
72611;SDS011;60655;52.182;4.474;2023-03-30T06:30:30;17.83;;;2.50;;
72611;SDS011;60655;52.182;4.474;2023-03-30T06:32:31;21.08;;;2.75;;
72611;SDS011;60655;52.182;4.474;2023-03-30T06:34:32;20.42;;;2.90;;
72611;SDS011;60655;52.182;4.474;2023-03-30T06:36:33;24.90;;;3.25;;
72611;SDS011;60655;52.182;4.474;2023-03-30T06:38:34;26.75;;;3.10;;
72611;SDS011;60655;52.182;4.474;2023-03-30T06:40:35;22.00;;;3.38;;
72611;SDS011;60655;52.182;4.474;2023-03-30T06:42:36;23.70;;;3.58;;
72611;SDS011;60655;52.182;4.474;2023-03-30T06:44:37;22.33;;;2.80;;
72611;SDS011;60655;52.182;4.474;2023-03-30T06:46:39;36.55;;;3.72;;
72611;SDS011;60655;52.182;4.474;2023-03-30T06:48:41;26.17;;;2.90;;
72611;SDS011;60655;52.182;4.474;2023-03-30T06:50:44;14.38;;;3.03;;
72611;SDS011;60655;52.182;4.474;2023-03-30T06:52:45;19.40;;;2.67;;
72611;SDS011;60655;52.182;4.474;2023-03-30T06:54:46;23.58;;;3.20;;
72611;SDS011;60655;52.182;4.474;2023-03-30T06:56:47;21.45;;;2.50;;
72611;SDS011;60655;52.182;4.474;2023-03-30T06:58:49;28.90;;;3.33;;
72611;SDS011;60655;52.182;4.474;2023-03-30T07:00:51;32.40;;;3.20;;
72611;SDS011;60655;52.182;4.474;2023-03-30T07:02:53;27.27;;;3.10;;
72611;SDS011;60655;52.182;4.474;2023-03-30T07:04:56;21.73;;;2.65;;
72611;SDS011;60655;52.182;4.474;2023-03-30T07:06:57;24.05;;;2.85;;
72611;SDS011;60655;52.182;4.474;2023-03-30T07:08:59;22.27;;;2.63;;
72611;SDS011;60655;52.182;4.474;2023-03-30T07:11:01;20.20;;;3.17;;
72611;SDS011;60655;52.182;4.474;2023-03-30T07:13:04;20.60;;;2.95;;
72611;SDS011;60655;52.182;4.474;2023-03-30T07:15:07;20.27;;;2.75;;
72611;SDS011;60655;52.182;4.474;2023-03-30T07:17:08;22.00;;;2.92;;
72611;SDS011;60655;52.182;4.474;2023-03-30T07:19:09;21.75;;;2.90;;
72611;SDS011;60655;52.182;4.474;2023-03-30T07:21:10;20.83;;;2.72;;
72611;SDS011;60655;52.182;4.474;2023-03-30T07:23:11;24.52;;;2.90;;
72611;SDS011;60655;52.182;4.474;2023-03-30T07:25:13;19.30;;;2.88;;
72611;SDS011;60655;52.182;4.474;2023-03-30T07:27:13;22.27;;;3.17;;
72611;SDS011;60655;52.182;4.474;2023-03-30T07:29:15;26.23;;;3.13;;
72611;SDS011;60655;52.182;4.474;2023-03-30T07:31:16;22.60;;;2.70;;
72611;SDS011;60655;52.182;4.474;2023-03-30T07:33:19;19.30;;;2.60;;
72611;SDS011;60655;52.182;4.474;2023-03-30T07:35:21;25.80;;;2.92;;
72611;SDS011;60655;52.182;4.474;2023-03-30T07:37:22;27.42;;;3.65;;
72611;SDS011;60655;52.182;4.474;2023-03-30T07:39:24;18.15;;;2.97;;
72611;SDS011;60655;52.182;4.474;2023-03-30T07:41:25;22.52;;;2.80;;
72611;SDS011;60655;52.182;4.474;2023-03-30T07:43:26;27.67;;;3.08;;
72611;SDS011;60655;52.182;4.474;2023-03-30T07:45:27;23.67;;;3.28;;
72611;SDS011;60655;52.182;4.474;2023-03-30T07:47:28;19.27;;;3.20;;
72611;SDS011;60655;52.182;4.474;2023-03-30T07:49:29;25.52;;;2.72;;
72611;SDS011;60655;52.182;4.474;2023-03-30T07:51:30;20.63;;;3.33;;
72611;SDS011;60655;52.182;4.474;2023-03-30T07:53:31;30.95;;;4.07;;
72611;SDS011;60655;52.182;4.474;2023-03-30T07:55:32;26.48;;;3.55;;
72611;SDS011;60655;52.182;4.474;2023-03-30T07:57:33;22.73;;;2.83;;
72611;SDS011;60655;52.182;4.474;2023-03-30T07:59:34;22.63;;;3.25;;
72611;SDS011;60655;52.182;4.474;2023-03-30T08:01:35;30.35;;;3.95;;
72611;SDS011;60655;52.182;4.474;2023-03-30T08:03:37;22.50;;;2.70;;
72611;SDS011;60655;52.182;4.474;2023-03-30T08:05:38;30.17;;;3.13;;
72611;SDS011;60655;52.182;4.474;2023-03-30T08:07:42;26.65;;;3.50;;
72611;SDS011;60655;52.182;4.474;2023-03-30T08:09:43;21.63;;;2.83;;
72611;SDS011;60655;52.182;4.474;2023-03-30T08:11:45;21.83;;;3.28;;
72611;SDS011;60655;52.182;4.474;2023-03-30T08:13:46;19.17;;;2.70;;
72611;SDS011;60655;52.182;4.474;2023-03-30T08:15:47;25.17;;;4.30;;
72611;SDS011;60655;52.182;4.474;2023-03-30T08:17:50;23.40;;;3.08;;
72611;SDS011;60655;52.182;4.474;2023-03-30T08:19:51;27.27;;;3.53;;
72611;SDS011;60655;52.182;4.474;2023-03-30T08:21:52;23.65;;;3.53;;
72611;SDS011;60655;52.182;4.474;2023-03-30T08:23:53;26.35;;;3.47;;
72611;SDS011;60655;52.182;4.474;2023-03-30T08:25:59;27.98;;;3.53;;
72611;SDS011;60655;52.182;4.474;2023-03-30T08:28:00;23.75;;;3.03;;
72611;SDS011;60655;52.182;4.474;2023-03-30T08:30:02;21.83;;;3.03;;
72611;SDS011;60655;52.182;4.474;2023-03-30T08:32:03;27.08;;;2.88;;
72611;SDS011;60655;52.182;4.474;2023-03-30T08:34:04;23.27;;;2.78;;
72611;SDS011;60655;52.182;4.474;2023-03-30T08:36:07;23.67;;;2.83;;
72611;SDS011;60655;52.182;4.474;2023-03-30T08:38:08;24.27;;;3.33;;
72611;SDS011;60655;52.182;4.474;2023-03-30T08:40:12;25.77;;;3.30;;
72611;SDS011;60655;52.182;4.474;2023-03-30T08:42:20;18.30;;;2.90;;
72611;SDS011;60655;52.182;4.474;2023-03-30T08:44:34;27.90;;;3.20;;
72611;SDS011;60655;52.182;4.474;2023-03-30T08:46:36;19.27;;;2.85;;
72611;SDS011;60655;52.182;4.474;2023-03-30T08:48:38;20.38;;;2.85;;
72611;SDS011;60655;52.182;4.474;2023-03-30T08:50:42;22.63;;;2.72;;
72611;SDS011;60655;52.182;4.474;2023-03-30T08:52:51;29.70;;;3.33;;
72611;SDS011;60655;52.182;4.474;2023-03-30T08:54:52;19.40;;;2.75;;
72611;SDS011;60655;52.182;4.474;2023-03-30T08:57:15;29.30;;;3.75;;
72611;SDS011;60655;52.182;4.474;2023-03-30T08:59:38;24.98;;;3.03;;
72611;SDS011;60655;52.182;4.474;2023-03-30T09:06:06;37.08;;;4.22;;
72611;SDS011;60655;52.182;4.474;2023-03-30T09:08:20;28.15;;;3.63;;
72611;SDS011;60655;52.182;4.474;2023-03-30T09:10:29;27.15;;;3.95;;
72611;SDS011;60655;52.182;4.474;2023-03-30T09:14:47;27.80;;;3.67;;
72611;SDS011;60655;52.182;4.474;2023-03-30T09:17:04;23.98;;;3.25;;
72611;SDS011;60655;52.182;4.474;2023-03-30T09:19:13;26.55;;;3.03;;
72611;SDS011;60655;52.182;4.474;2023-03-30T09:21:20;25.85;;;3.22;;
72611;SDS011;60655;52.182;4.474;2023-03-30T09:23:25;35.38;;;4.05;;
72611;SDS011;60655;52.182;4.474;2023-03-30T09:30:18;32.67;;;4.40;;
72611;SDS011;60655;52.182;4.474;2023-03-30T09:32:30;36.72;;;4.45;;
72611;SDS011;60655;52.182;4.474;2023-03-30T09:34:46;29.90;;;2.70;;
72611;SDS011;60655;52.182;4.474;2023-03-30T09:37:07;30.15;;;3.55;;
72611;SDS011;60655;52.182;4.474;2023-03-30T09:39:17;28.73;;;3.30;;
72611;SDS011;60655;52.182;4.474;2023-03-30T09:41:27;24.70;;;3.60;;
72611;SDS011;60655;52.182;4.474;2023-03-30T09:43:51;30.73;;;3.65;;
72611;SDS011;60655;52.182;4.474;2023-03-30T09:45:53;27.52;;;3.28;;
72611;SDS011;60655;52.182;4.474;2023-03-30T09:47:57;23.42;;;2.65;;
72611;SDS011;60655;52.182;4.474;2023-03-30T09:50:05;23.48;;;2.55;;
72611;SDS011;60655;52.182;4.474;2023-03-30T09:52:13;24.70;;;3.13;;
72611;SDS011;60655;52.182;4.474;2023-03-30T09:54:20;32.35;;;5.22;;
72611;SDS011;60655;52.182;4.474;2023-03-30T09:56:27;18.90;;;3.15;;
72611;SDS011;60655;52.182;4.474;2023-03-30T09:58:35;22.95;;;2.72;;
72611;SDS011;60655;52.182;4.474;2023-03-30T10:00:37;24.75;;;3.03;;
72611;SDS011;60655;52.182;4.474;2023-03-30T10:02:38;21.58;;;3.00;;
72611;SDS011;60655;52.182;4.474;2023-03-30T10:06:52;29.67;;;3.38;;
72611;SDS011;60655;52.182;4.474;2023-03-30T10:08:54;31.75;;;3.88;;
72611;SDS011;60655;52.182;4.474;2023-03-30T10:10:56;29.25;;;3.42;;
72611;SDS011;60655;52.182;4.474;2023-03-30T10:13:11;27.42;;;3.63;;
72611;SDS011;60655;52.182;4.474;2023-03-30T10:15:15;23.75;;;3.60;;
72611;SDS011;60655;52.182;4.474;2023-03-30T10:17:21;28.20;;;3.42;;
72611;SDS011;60655;52.182;4.474;2023-03-30T10:19:24;24.08;;;3.53;;
72611;SDS011;60655;52.182;4.474;2023-03-30T10:21:28;29.33;;;3.38;;
72611;SDS011;60655;52.182;4.474;2023-03-30T10:23:34;36.58;;;3.08;;
72611;SDS011;60655;52.182;4.474;2023-03-30T10:25:42;30.10;;;3.40;;
72611;SDS011;60655;52.182;4.474;2023-03-30T10:27:43;29.30;;;3.55;;
72611;SDS011;60655;52.182;4.474;2023-03-30T10:29:45;28.75;;;3.58;;
72611;SDS011;60655;52.182;4.474;2023-03-30T10:31:51;35.00;;;3.95;;
72611;SDS011;60655;52.182;4.474;2023-03-30T10:34:15;25.75;;;3.20;;
72611;SDS011;60655;52.182;4.474;2023-03-30T10:36:37;26.83;;;3.28;;
72611;SDS011;60655;52.182;4.474;2023-03-30T10:38:39;31.23;;;3.72;;
72611;SDS011;60655;52.182;4.474;2023-03-30T10:40:43;24.40;;;3.30;;
72611;SDS011;60655;52.182;4.474;2023-03-30T10:42:45;28.55;;;3.67;;
72611;SDS011;60655;52.182;4.474;2023-03-30T10:44:50;26.67;;;3.45;;
72611;SDS011;60655;52.182;4.474;2023-03-30T10:49:51;28.15;;;3.70;;
72611;SDS011;60655;52.182;4.474;2023-03-30T10:59:10;35.33;;;3.35;;
72611;SDS011;60655;52.182;4.474;2023-03-30T11:02:20;26.63;;;2.85;;
72611;SDS011;60655;52.182;4.474;2023-03-30T11:04:10;24.08;;;3.80;;
72611;SDS011;60655;52.182;4.474;2023-03-30T11:06:38;35.00;;;3.17;;
72611;SDS011;60655;52.182;4.474;2023-03-30T11:08:43;32.00;;;5.15;;
72611;SDS011;60655;52.182;4.474;2023-03-30T11:10:48;25.35;;;3.25;;
72611;SDS011;60655;52.182;4.474;2023-03-30T11:12:55;23.35;;;3.30;;
72611;SDS011;60655;52.182;4.474;2023-03-30T11:15:21;26.63;;;3.35;;
72611;SDS011;60655;52.182;4.474;2023-03-30T11:17:27;29.02;;;2.92;;
72611;SDS011;60655;52.182;4.474;2023-03-30T11:19:35;27.48;;;3.42;;
72611;SDS011;60655;52.182;4.474;2023-03-30T11:24:03;35.70;;;4.00;;
72611;SDS011;60655;52.182;4.474;2023-03-30T11:26:06;24.77;;;3.25;;
72611;SDS011;60655;52.182;4.474;2023-03-30T11:28:34;20.73;;;3.72;;
72611;SDS011;60655;52.182;4.474;2023-03-30T11:30:36;32.80;;;3.47;;
72611;SDS011;60655;52.182;4.474;2023-03-30T11:32:43;29.00;;;3.85;;
72611;SDS011;60655;52.182;4.474;2023-03-30T11:34:55;26.33;;;2.90;;
72611;SDS011;60655;52.182;4.474;2023-03-30T11:37:40;26.42;;;3.75;;
72611;SDS011;60655;52.182;4.474;2023-03-30T11:44:35;21.75;;;3.05;;
72611;SDS011;60655;52.182;4.474;2023-03-30T11:46:48;29.35;;;3.53;;
72611;SDS011;60655;52.182;4.474;2023-03-30T11:56:06;30.50;;;3.72;;
72611;SDS011;60655;52.182;4.474;2023-03-30T11:58:31;25.75;;;4.35;;
72611;SDS011;60655;52.182;4.474;2023-03-30T12:03:15;29.63;;;3.60;;
72611;SDS011;60655;52.182;4.474;2023-03-30T12:05:27;25.50;;;3.40;;
72611;SDS011;60655;52.182;4.474;2023-03-30T12:10:04;25.58;;;3.05;;
72611;SDS011;60655;52.182;4.474;2023-03-30T12:12:15;20.85;;;3.28;;
72611;SDS011;60655;52.182;4.474;2023-03-30T12:18:45;25.65;;;3.25;;
72611;SDS011;60655;52.182;4.474;2023-03-30T12:25:29;36.15;;;3.72;;
72611;SDS011;60655;52.182;4.474;2023-03-30T12:30:19;26.20;;;3.30;;
72611;SDS011;60655;52.182;4.474;2023-03-30T12:32:26;25.10;;;3.30;;
72611;SDS011;60655;52.182;4.474;2023-03-30T12:34:33;23.00;;;2.95;;
72611;SDS011;60655;52.182;4.474;2023-03-30T12:36:36;24.60;;;3.78;;
72611;SDS011;60655;52.182;4.474;2023-03-30T12:38:40;24.65;;;3.10;;
72611;SDS011;60655;52.182;4.474;2023-03-30T12:40:46;30.63;;;3.05;;
72611;SDS011;60655;52.182;4.474;2023-03-30T12:43:28;36.05;;;3.95;;
72611;SDS011;60655;52.182;4.474;2023-03-30T12:45:52;28.70;;;3.80;;
72611;SDS011;60655;52.182;4.474;2023-03-30T12:50:42;29.05;;;3.40;;
72611;SDS011;60655;52.182;4.474;2023-03-30T12:57:49;26.90;;;3.03;;
72611;SDS011;60655;52.182;4.474;2023-03-30T13:00:36;22.88;;;3.50;;
72611;SDS011;60655;52.182;4.474;2023-03-30T13:03:03;24.00;;;3.08;;
72611;SDS011;60655;52.182;4.474;2023-03-30T13:05:28;30.55;;;3.20;;
72611;SDS011;60655;52.182;4.474;2023-03-30T13:07:34;32.75;;;5.18;;
72611;SDS011;60655;52.182;4.474;2023-03-30T13:09:56;24.38;;;3.35;;
72611;SDS011;60655;52.182;4.474;2023-03-30T13:14:03;28.90;;;4.07;;
72611;SDS011;60655;52.182;4.474;2023-03-30T13:18:53;31.15;;;4.20;;
72611;SDS011;60655;52.182;4.474;2023-03-30T13:25:27;27.63;;;3.92;;
72611;SDS011;60655;52.182;4.474;2023-03-30T13:27:44;24.63;;;4.07;;
72611;SDS011;60655;52.182;4.474;2023-03-30T13:32:11;28.02;;;3.78;;
72611;SDS011;60655;52.182;4.474;2023-03-30T13:34:16;24.73;;;3.35;;
72611;SDS011;60655;52.182;4.474;2023-03-30T13:36:32;32.70;;;3.42;;
72611;SDS011;60655;52.182;4.474;2023-03-30T13:38:46;28.63;;;3.95;;
72611;SDS011;60655;52.182;4.474;2023-03-30T13:41:06;25.42;;;3.50;;
72611;SDS011;60655;52.182;4.474;2023-03-30T13:45:53;25.33;;;2.75;;
72611;SDS011;60655;52.182;4.474;2023-03-30T13:50:19;24.02;;;3.05;;
72611;SDS011;60655;52.182;4.474;2023-03-30T13:52:34;28.92;;;4.03;;
72611;SDS011;60655;52.182;4.474;2023-03-30T13:56:40;28.27;;;3.22;;
72611;SDS011;60655;52.182;4.474;2023-03-30T13:59:02;28.25;;;3.50;;
72611;SDS011;60655;52.182;4.474;2023-03-30T14:01:08;32.00;;;3.97;;
72611;SDS011;60655;52.182;4.474;2023-03-30T14:05:43;18.33;;;2.97;;
72611;SDS011;60655;52.182;4.474;2023-03-30T14:07:45;26.75;;;3.08;;
72611;SDS011;60655;52.182;4.474;2023-03-30T14:10:03;22.77;;;2.90;;
72611;SDS011;60655;52.182;4.474;2023-03-30T14:12:11;25.23;;;2.97;;
72611;SDS011;60655;52.182;4.474;2023-03-30T14:14:17;22.00;;;3.33;;
72611;SDS011;60655;52.182;4.474;2023-03-30T14:16:30;35.15;;;4.10;;
72611;SDS011;60655;52.182;4.474;2023-03-30T14:18:33;29.55;;;3.50;;
72611;SDS011;60655;52.182;4.474;2023-03-30T14:22:50;26.05;;;3.53;;
72611;SDS011;60655;52.182;4.474;2023-03-30T14:24:57;28.40;;;4.13;;